createdAt,value
2018-11-25T00:01:17.821Z,6.50
2018-11-25T00:03:46.438Z,6.50
2018-11-25T00:06:14.951Z,6.50
2018-11-25T00:08:43.469Z,6.40
2018-11-25T00:11:12.157Z,6.40
2018-11-25T00:13:40.623Z,6.40
2018-11-25T00:16:09.214Z,6.30
2018-11-25T00:18:37.692Z,6.20
2018-11-25T00:21:06.903Z,6.30
2018-11-25T00:23:35.396Z,6.30
2018-11-25T00:26:03.913Z,6.20
2018-11-25T00:28:32.349Z,6.20
2018-11-25T00:31:04.671Z,6.10
2018-11-25T00:33:29.364Z,6.10
2018-11-25T00:35:57.787Z,6.10
2018-11-25T00:38:26.274Z,6.10
2018-11-25T00:40:54.766Z,6.00
2018-11-25T00:43:23.300Z,6.00
2018-11-25T00:45:51.837Z,6.10
2018-11-25T00:48:20.334Z,6.00
2018-11-25T00:50:48.760Z,6.00
2018-11-25T00:53:17.290Z,6.00
2018-11-25T00:55:45.738Z,6.00
2018-11-25T00:58:14.200Z,6.00
2018-11-25T01:00:42.694Z,6.00
2018-11-25T01:03:11.185Z,6.00
2018-11-25T01:05:39.683Z,6.00
2018-11-25T01:08:08.170Z,6.00
2018-11-25T01:10:36.716Z,6.00
2018-11-25T01:13:05.338Z,5.90
2018-11-25T01:15:33.808Z,5.90
2018-11-25T01:18:02.302Z,5.90
2018-11-25T01:20:30.806Z,5.90
2018-11-25T01:22:59.240Z,5.90
2018-11-25T01:25:28.786Z,5.80
2018-11-25T01:27:57.345Z,5.90
2018-11-25T01:30:25.984Z,5.90
2018-11-25T01:32:54.399Z,6.00
2018-11-25T01:35:22.882Z,5.90
2018-11-25T01:37:51.417Z,6.00
2018-11-25T01:40:20.023Z,6.00
2018-11-25T01:42:48.570Z,6.00
2018-11-25T01:45:17.759Z,6.00
2018-11-25T01:47:46.318Z,6.00
2018-11-25T01:51:40.642Z,6.00
2018-11-25T01:54:09.143Z,6.00
2018-11-25T01:56:37.594Z,6.10
2018-11-25T01:59:06.128Z,6.00
2018-11-25T02:01:34.830Z,6.00
2018-11-25T02:04:03.501Z,6.00
2018-11-25T02:06:32.106Z,6.00
2018-11-25T02:09:00.673Z,6.00
2018-11-25T02:11:29.286Z,6.00
2018-11-25T02:13:57.822Z,6.00
2018-11-25T02:16:26.377Z,6.00
2018-11-25T02:18:54.869Z,6.00
2018-11-25T02:21:23.425Z,6.00
2018-11-25T02:23:51.925Z,6.00
2018-11-25T02:26:20.414Z,6.00
2018-11-25T02:28:48.861Z,5.90
2018-11-25T02:31:17.325Z,5.90
2018-11-25T02:33:45.820Z,5.90
2018-11-25T02:36:14.317Z,5.90
2018-11-25T02:38:42.833Z,5.90
2018-11-25T02:41:11.349Z,5.90
2018-11-25T02:43:39.857Z,5.90
2018-11-25T02:46:08.333Z,5.90
2018-11-25T02:48:36.824Z,5.80
2018-11-25T02:51:05.309Z,5.90
2018-11-25T02:53:33.793Z,5.90
2018-11-25T02:56:02.253Z,5.90
2018-11-25T02:58:30.735Z,5.90
2018-11-25T03:01:04.453Z,5.90
2018-11-25T03:03:32.914Z,5.90
2018-11-25T03:06:01.438Z,6.00
2018-11-25T03:08:29.870Z,6.00
2018-11-25T03:10:58.414Z,6.00
2018-11-25T03:13:26.857Z,6.00
2018-11-25T03:15:55.336Z,6.10
2018-11-25T03:18:23.823Z,6.10
2018-11-25T03:20:52.313Z,6.10
2018-11-25T03:23:20.781Z,6.00
2018-11-25T03:25:49.284Z,6.10
2018-11-25T03:28:17.993Z,6.00
2018-11-25T03:30:46.476Z,6.00
2018-11-25T03:33:14.901Z,5.80
2018-11-25T03:35:43.446Z,5.90
2018-11-25T03:38:11.872Z,5.80
2018-11-25T03:40:40.375Z,5.80
2018-11-25T03:43:08.823Z,5.90
2018-11-25T03:45:37.355Z,5.90
2018-11-25T03:48:05.922Z,5.90
2018-11-25T03:50:34.394Z,5.90
2018-11-25T03:53:02.909Z,5.90
2018-11-25T03:55:31.344Z,5.90
2018-11-25T03:57:59.862Z,6.00
2018-11-25T04:00:28.464Z,5.90
2018-11-25T04:02:56.906Z,5.90
2018-11-25T04:05:25.365Z,6.00
2018-11-25T04:07:53.862Z,6.00
2018-11-25T04:10:22.343Z,6.00
2018-11-25T04:12:51.587Z,6.00
2018-11-25T04:15:20.300Z,6.10
2018-11-25T04:17:48.966Z,6.10
2018-11-25T04:20:18.537Z,6.00
2018-11-25T04:22:47.106Z,6.00
2018-11-25T04:25:15.627Z,6.10
2018-11-25T04:27:44.164Z,6.00
2018-11-25T04:30:15.354Z,6.00
2018-11-25T04:32:44.428Z,6.00
2018-11-25T04:35:13.433Z,5.90
2018-11-25T04:37:42.010Z,5.90
2018-11-25T04:40:11.598Z,5.90
2018-11-25T04:42:40.146Z,5.80
2018-11-25T04:45:10.913Z,5.90
2018-11-25T04:47:39.686Z,5.90
2018-11-25T04:50:15.901Z,5.90
2018-11-25T04:52:44.545Z,5.90
2018-11-25T04:55:13.213Z,5.90
2018-11-25T04:57:41.821Z,5.80
2018-11-25T05:00:12.364Z,5.80
2018-11-25T05:02:41.474Z,5.80
2018-11-25T05:05:11.106Z,5.80
2018-11-25T05:07:39.732Z,5.70
2018-11-25T05:10:14.968Z,5.70
2018-11-25T05:12:43.567Z,5.70
2018-11-25T05:15:16.053Z,5.70
2018-11-25T05:17:44.506Z,5.70
2018-11-25T05:20:13.643Z,5.80
2018-11-25T05:22:42.179Z,5.80
2018-11-25T05:25:14.872Z,5.80
2018-11-25T05:27:43.417Z,5.70
2018-11-25T05:30:14.933Z,5.70
2018-11-25T05:32:43.417Z,5.70
2018-11-25T05:35:14.046Z,5.70
2018-11-25T05:37:42.554Z,5.70
2018-11-25T05:40:12.057Z,5.70
2018-11-25T05:42:40.562Z,5.70
2018-11-25T05:45:10.657Z,5.70
2018-11-25T05:47:39.341Z,5.70
2018-11-25T05:50:09.757Z,5.70
2018-11-25T05:52:38.250Z,5.70
2018-11-25T05:55:07.829Z,5.70
2018-11-25T05:57:36.338Z,5.70
2018-11-25T06:00:07.598Z,5.70
2018-11-25T06:02:36.043Z,5.70
2018-11-25T06:05:05.299Z,5.70
2018-11-25T06:07:33.743Z,5.60
2018-11-25T06:10:02.319Z,5.60
2018-11-25T06:12:30.781Z,5.60
2018-11-25T06:14:59.376Z,5.60
2018-11-25T06:17:27.961Z,5.60
2018-11-25T06:19:56.436Z,5.60
2018-11-25T06:22:24.916Z,5.60
2018-11-25T06:24:53.461Z,5.70
2018-11-25T06:27:21.875Z,5.70
2018-11-25T06:29:51.406Z,5.60
2018-11-25T06:32:19.855Z,5.70
2018-11-25T06:34:48.371Z,5.70
2018-11-25T06:37:16.826Z,5.80
2018-11-25T06:39:45.914Z,5.70
2018-11-25T06:42:14.403Z,5.80
2018-11-25T06:44:42.905Z,5.80
2018-11-25T06:47:11.381Z,5.80
2018-11-25T06:49:39.867Z,5.70
2018-11-25T06:52:08.345Z,5.80
2018-11-25T06:54:36.822Z,5.80
2018-11-25T06:57:05.414Z,5.70
2018-11-25T06:59:33.889Z,5.70
2018-11-25T07:02:02.322Z,5.70
2018-11-25T07:04:30.753Z,5.60
2018-11-25T07:06:59.234Z,5.60
2018-11-25T07:09:27.722Z,5.60
2018-11-25T07:11:56.193Z,5.60
2018-11-25T07:14:24.667Z,5.60
2018-11-25T07:16:53.149Z,5.60
2018-11-25T07:19:21.662Z,5.50
2018-11-25T07:21:50.138Z,5.50
2018-11-25T07:24:18.589Z,5.40
2018-11-25T07:26:47.105Z,5.50
2018-11-25T07:29:15.558Z,5.50
2018-11-25T07:31:44.046Z,5.60
2018-11-25T07:34:12.529Z,5.60
2018-11-25T07:36:41.008Z,5.60
2018-11-25T07:39:09.493Z,5.60
2018-11-25T07:41:37.970Z,5.60
2018-11-25T07:44:06.525Z,5.60
2018-11-25T07:46:34.917Z,5.60
2018-11-25T07:49:03.489Z,5.60
2018-11-25T07:51:31.991Z,5.60
2018-11-25T07:54:00.494Z,5.60
2018-11-25T07:56:28.966Z,5.60
2018-11-25T07:58:57.462Z,5.60
2018-11-25T08:01:25.920Z,5.50
2018-11-25T08:03:54.510Z,5.60
2018-11-25T08:06:23.025Z,5.60
2018-11-25T08:08:51.606Z,5.60
2018-11-25T08:11:21.104Z,5.70
2018-11-25T08:13:49.553Z,5.70
2018-11-25T08:16:18.061Z,5.70
2018-11-25T08:18:46.526Z,5.70
2018-11-25T08:21:15.023Z,5.80
2018-11-25T08:23:43.472Z,5.80
2018-11-25T08:26:12.005Z,5.90
2018-11-25T08:28:40.462Z,5.90
2018-11-25T08:31:08.951Z,5.90
2018-11-25T08:33:37.409Z,5.90
2018-11-25T08:36:06.489Z,6.00
2018-11-25T08:38:34.984Z,6.00
2018-11-25T08:41:03.497Z,6.00
2018-11-25T08:43:31.950Z,6.10
2018-11-25T08:46:00.488Z,6.10
2018-11-25T08:48:29.168Z,6.10
2018-11-25T08:50:57.641Z,6.20
2018-11-25T08:53:26.201Z,6.20
2018-11-25T08:55:54.711Z,6.30
2018-11-25T08:58:23.175Z,6.30
2018-11-25T09:00:51.628Z,6.30
2018-11-25T09:03:20.129Z,6.30
2018-11-25T09:05:48.603Z,6.30
2018-11-25T09:08:17.086Z,6.40
2018-11-25T09:10:45.585Z,6.40
2018-11-25T09:13:14.046Z,6.40
2018-11-25T09:15:42.537Z,6.40
2018-11-25T09:18:11.006Z,6.40
2018-11-25T09:20:39.511Z,6.40
2018-11-25T09:23:07.985Z,6.40
2018-11-25T09:25:36.446Z,6.50
2018-11-25T09:28:04.958Z,6.40
2018-11-25T09:30:34.029Z,6.40
2018-11-25T09:33:02.543Z,6.40
2018-11-25T09:35:31.033Z,6.50
2018-11-25T09:37:59.482Z,6.50
2018-11-25T09:40:28.387Z,6.50
2018-11-25T09:42:56.869Z,6.50
2018-11-25T09:45:25.482Z,6.50
2018-11-25T09:47:53.972Z,6.50
2018-11-25T09:50:23.358Z,6.50
2018-11-25T09:52:51.990Z,6.50
2018-11-25T09:55:22.654Z,6.40
2018-11-25T09:57:52.717Z,6.50
2018-11-25T10:00:22.618Z,6.50
2018-11-25T10:02:51.102Z,6.50
2018-11-25T10:05:19.642Z,6.50
2018-11-25T10:07:48.289Z,6.50
2018-11-25T10:10:18.948Z,6.40
2018-11-25T10:12:47.496Z,6.40
2018-11-25T10:15:17.351Z,6.40
2018-11-25T10:17:45.860Z,6.40
2018-11-25T10:20:18.617Z,6.60
2018-11-25T10:22:47.123Z,6.60
2018-11-25T10:26:45.746Z,6.60
2018-11-25T10:29:14.159Z,6.70
2018-11-25T10:31:42.742Z,6.60
2018-11-25T10:34:11.280Z,6.70
2018-11-25T10:36:39.770Z,6.60
2018-11-25T10:39:09.372Z,6.70
2018-11-25T10:41:37.872Z,6.70
2018-11-25T10:44:06.408Z,6.70
2018-11-25T10:46:34.901Z,6.80
2018-11-25T10:49:03.406Z,6.90
2018-11-25T10:51:31.898Z,6.90
2018-11-25T10:54:00.376Z,6.80
2018-11-25T10:56:28.985Z,6.80
2018-11-25T10:58:57.685Z,6.80
2018-11-25T11:01:31.529Z,6.80
2018-11-25T11:04:00.174Z,6.90
2018-11-25T11:06:35.431Z,6.90
2018-11-25T11:09:05.091Z,6.90
2018-11-25T11:11:33.607Z,6.90
2018-11-25T11:14:02.172Z,6.90
2018-11-25T11:16:30.826Z,6.90
2018-11-25T11:18:59.310Z,6.90
2018-11-25T11:21:27.882Z,6.90
2018-11-25T11:23:56.385Z,6.90
2018-11-25T11:26:26.605Z,7.00
2018-11-25T11:28:55.183Z,7.00
2018-11-25T11:31:23.680Z,6.90
2018-11-25T11:33:52.278Z,7.00
2018-11-25T11:36:20.838Z,7.00
2018-11-25T11:38:49.294Z,7.10
2018-11-25T11:41:17.927Z,7.10
2018-11-25T11:43:46.608Z,7.10
2018-11-25T11:46:15.141Z,7.00
2018-11-25T11:48:43.664Z,7.10
2018-11-25T11:51:12.599Z,7.00
2018-11-25T11:53:41.186Z,6.90
2018-11-25T11:56:09.742Z,6.90
2018-11-25T11:58:38.362Z,6.90
2018-11-25T12:01:07.864Z,7.10
2018-11-25T12:03:36.424Z,7.10
2018-11-25T12:06:05.137Z,7.10
2018-11-25T12:08:33.684Z,7.10
2018-11-25T12:11:02.350Z,7.00
2018-11-25T12:13:30.810Z,7.10
2018-11-25T12:16:00.153Z,7.10
2018-11-25T12:18:29.422Z,7.10
2018-11-25T12:20:57.883Z,7.10
2018-11-25T12:23:26.407Z,7.10
2018-11-25T12:25:54.953Z,7.20
2018-11-25T12:28:23.549Z,7.20
2018-11-25T12:30:52.030Z,7.20
2018-11-25T12:33:20.571Z,7.30
2018-11-25T12:35:49.101Z,7.30
2018-11-25T12:38:17.674Z,7.20
2018-11-25T12:40:46.205Z,7.30
2018-11-25T12:43:14.724Z,7.30
2018-11-25T12:45:43.276Z,7.20
2018-11-25T12:48:11.852Z,7.10
2018-11-25T12:50:40.461Z,7.10
2018-11-25T12:53:08.961Z,7.00
2018-11-25T12:55:37.537Z,7.00
2018-11-25T12:58:06.089Z,7.00
2018-11-25T13:00:37.297Z,7.10
2018-11-25T13:03:07.301Z,7.00
2018-11-25T13:05:35.814Z,7.00
2018-11-25T13:08:04.285Z,7.00
2018-11-25T13:10:32.806Z,7.00
2018-11-25T13:13:01.341Z,7.00
2018-11-25T13:15:29.873Z,7.00
2018-11-25T13:17:59.321Z,7.20
2018-11-25T13:20:27.894Z,7.20
2018-11-25T13:22:56.430Z,7.30
2018-11-25T13:25:25.066Z,7.30
2018-11-25T13:27:53.667Z,7.30
2018-11-25T13:30:27.483Z,7.30
2018-11-25T13:32:58.233Z,7.30
2018-11-25T13:35:31.091Z,7.30
2018-11-25T13:37:59.626Z,7.30
2018-11-25T13:40:28.312Z,7.30
2018-11-25T13:42:57.139Z,7.20
2018-11-25T13:45:25.657Z,7.20
2018-11-25T13:47:54.133Z,7.20
2018-11-25T13:50:22.672Z,7.20
2018-11-25T13:52:51.243Z,7.20
2018-11-25T13:55:23.269Z,7.20
2018-11-25T13:57:51.759Z,7.30
2018-11-25T14:00:30.809Z,7.20
2018-11-25T14:02:59.442Z,7.20
2018-11-25T14:05:27.931Z,7.30
2018-11-25T14:07:56.670Z,7.20
2018-11-25T14:10:28.153Z,7.20
2018-11-25T14:12:56.699Z,7.20
2018-11-25T14:15:25.737Z,7.20
2018-11-25T14:17:54.241Z,7.30
2018-11-25T14:20:22.776Z,7.20
2018-11-25T14:22:51.322Z,7.30
2018-11-25T14:25:21.087Z,7.30
2018-11-25T14:27:51.911Z,7.30
2018-11-25T14:30:22.795Z,7.30
2018-11-25T14:32:51.313Z,7.30
2018-11-25T14:35:19.957Z,7.30
2018-11-25T14:37:48.438Z,7.30
2018-11-25T14:40:18.453Z,7.40
2018-11-25T14:42:47.055Z,7.40
2018-11-25T14:45:16.880Z,7.40
2018-11-25T14:47:45.468Z,7.40
2018-11-25T14:50:15.509Z,7.50
2018-11-25T14:52:45.334Z,7.50
2018-11-25T14:55:14.841Z,7.50
2018-11-25T14:57:43.462Z,7.40
2018-11-25T15:00:14.471Z,7.30
2018-11-25T15:02:43.866Z,7.20
2018-11-25T15:05:23.881Z,7.20
2018-11-25T15:07:52.474Z,7.20
2018-11-25T15:10:21.096Z,7.20
2018-11-25T15:12:49.841Z,7.20
2018-11-25T15:15:18.886Z,7.20
2018-11-25T15:17:47.557Z,7.30
2018-11-25T15:20:16.666Z,7.20
2018-11-25T15:22:46.744Z,7.20
2018-11-25T15:25:17.806Z,7.20
2018-11-25T15:27:46.487Z,7.20
2018-11-25T15:30:15.216Z,7.20
2018-11-25T15:32:43.713Z,7.20
2018-11-25T15:35:13.276Z,7.20
2018-11-25T15:37:44.565Z,7.10
2018-11-25T15:40:15.197Z,7.10
2018-11-25T15:42:43.842Z,7.10
2018-11-25T15:45:12.569Z,7.20
2018-11-25T15:47:42.914Z,7.10
2018-11-25T15:50:13.179Z,7.10
2018-11-25T15:52:41.771Z,7.20
2018-11-25T15:56:14.609Z,7.20
2018-11-25T15:58:43.347Z,7.10
2018-11-25T16:01:11.902Z,7.10
2018-11-25T16:03:40.528Z,7.10
2018-11-25T16:06:13.260Z,7.10
2018-11-25T16:08:41.838Z,7.10
2018-11-25T16:11:10.537Z,7.10
2018-11-25T16:13:39.176Z,7.10
2018-11-25T16:16:07.714Z,7.10
2018-11-25T16:18:36.429Z,7.10
2018-11-25T16:21:05.392Z,7.10
2018-11-25T16:23:33.977Z,7.10
2018-11-25T16:26:21.904Z,7.10
2018-11-25T16:28:52.627Z,7.10
2018-11-25T16:31:21.230Z,7.20
2018-11-25T16:33:49.776Z,7.20
2018-11-25T16:36:18.328Z,7.20
2018-11-25T16:38:46.838Z,7.30
2018-11-25T16:41:15.353Z,7.30
2018-11-25T16:43:44.072Z,7.20
2018-11-25T16:46:12.641Z,7.20
2018-11-25T16:48:41.244Z,7.20
2018-11-25T16:51:09.789Z,7.10
2018-11-25T16:53:38.557Z,7.10
2018-11-25T16:56:07.309Z,7.10
2018-11-25T16:58:36.094Z,7.10
2018-11-25T17:01:09.781Z,7.00
2018-11-25T17:03:33.503Z,7.00
2018-11-25T17:06:01.961Z,7.10
2018-11-25T17:08:33.281Z,7.10
2018-11-25T17:11:01.965Z,7.10
2018-11-25T17:13:30.488Z,7.10
2018-11-25T17:15:59.030Z,7.10
2018-11-25T17:18:27.697Z,7.10
2018-11-25T17:20:56.270Z,7.00
2018-11-25T17:23:25.080Z,6.90
2018-11-25T17:25:53.829Z,6.90
2018-11-25T17:28:22.322Z,6.90
2018-11-25T17:30:50.793Z,6.90
2018-11-25T17:33:19.259Z,6.90
2018-11-25T17:35:47.718Z,6.90
2018-11-25T17:38:16.245Z,6.90
2018-11-25T17:40:45.293Z,6.90
2018-11-25T17:43:16.137Z,6.90
2018-11-25T17:45:44.766Z,6.90
2018-11-25T17:48:13.299Z,6.90
2018-11-25T17:50:42.251Z,6.90
2018-11-25T17:53:11.518Z,6.90
2018-11-25T17:55:40.185Z,6.80
2018-11-25T17:58:10.273Z,6.80
2018-11-25T18:00:45.374Z,6.70
2018-11-25T18:03:22.267Z,6.70
2018-11-25T18:05:51.346Z,6.80
2018-11-25T18:08:20.102Z,6.80
2018-11-25T18:10:48.930Z,6.80
2018-11-25T18:13:19.044Z,6.80
2018-11-25T18:15:48.224Z,6.80
2018-11-25T18:18:20.163Z,6.90
2018-11-25T18:20:51.920Z,6.90
2018-11-25T18:23:20.497Z,7.00
2018-11-25T18:25:49.206Z,7.10
2018-11-25T18:28:18.168Z,7.10
2018-11-25T18:30:46.777Z,7.10
2018-11-25T18:33:15.292Z,7.00
2018-11-25T18:35:43.776Z,7.00
2018-11-25T18:45:13.914Z,7.00
2018-11-25T18:47:43.708Z,7.10
2018-11-25T18:50:13.738Z,7.00
2018-11-25T18:52:43.440Z,7.00
2018-11-25T18:55:10.838Z,6.90
2018-11-25T18:57:39.885Z,6.80
2018-11-25T19:00:14.902Z,6.80
2018-11-25T19:02:44.621Z,6.70
2018-11-25T19:05:13.232Z,6.70
2018-11-25T19:07:43.153Z,6.70
2018-11-25T19:10:15.455Z,6.70
2018-11-25T19:12:44.554Z,6.80
2018-11-25T19:15:14.191Z,6.80
2018-11-25T19:17:43.015Z,6.80
2018-11-25T19:20:16.220Z,6.80
2018-11-25T19:22:45.440Z,6.80
2018-11-25T19:25:15.442Z,6.80
2018-11-25T19:27:44.833Z,6.80
2018-11-25T19:30:15.487Z,6.80
2018-11-25T19:32:46.313Z,6.80
2018-11-25T19:35:17.309Z,6.80
2018-11-25T19:37:47.006Z,6.80
2018-11-25T19:40:17.172Z,6.90
2018-11-25T19:42:45.734Z,6.90
2018-11-25T19:45:21.136Z,6.90
2018-11-25T19:47:49.680Z,6.90
2018-11-25T19:50:20.831Z,6.90
2018-11-25T19:52:49.837Z,7.00
2018-11-25T19:55:18.506Z,6.90
2018-11-25T19:57:47.570Z,6.80
2018-11-25T20:00:21.638Z,6.70
2018-11-25T20:02:50.160Z,6.70
2018-11-25T20:05:18.930Z,6.70
2018-11-25T20:07:47.626Z,6.70
2018-11-25T20:10:19.746Z,6.70
2018-11-25T20:12:49.713Z,6.60
2018-11-25T20:15:19.082Z,6.60
2018-11-25T20:17:54.204Z,6.60
2018-11-25T20:20:21.338Z,6.60
2018-11-25T20:22:50.534Z,6.60
2018-11-25T20:25:19.429Z,6.70
2018-11-25T20:27:49.043Z,6.70
2018-11-25T20:30:25.461Z,6.70
2018-11-25T20:32:59.246Z,6.70
2018-11-25T20:35:27.735Z,6.60
2018-11-25T20:38:01.528Z,6.60
2018-11-25T20:40:29.994Z,6.60
2018-11-25T20:42:58.633Z,6.60
2018-11-25T20:45:38.495Z,6.60
2018-11-25T20:48:01.345Z,6.60
2018-11-25T20:50:30.076Z,6.60
2018-11-25T20:53:05.152Z,6.50
2018-11-25T20:55:33.689Z,6.60
2018-11-25T20:58:02.185Z,6.60
2018-11-25T21:00:31.110Z,6.60
2018-11-25T21:02:59.972Z,6.60
2018-11-25T21:05:28.626Z,6.50
2018-11-25T21:07:57.201Z,6.60
2018-11-25T21:10:26.270Z,6.60
2018-11-25T21:12:55.177Z,6.60
2018-11-25T21:15:24.465Z,6.50
2018-11-25T21:17:53.124Z,6.50
2018-11-25T21:20:25.041Z,6.50
2018-11-25T21:22:53.634Z,6.50
2018-11-25T21:25:23.244Z,6.50
2018-11-25T21:27:51.749Z,6.50
2018-11-25T21:30:24.611Z,6.50
2018-11-25T21:32:55.552Z,6.40
2018-11-25T21:35:24.091Z,6.40
2018-11-25T21:37:52.617Z,6.40
2018-11-25T21:40:22.543Z,6.50
2018-11-25T21:42:51.057Z,6.50
2018-11-25T21:45:20.629Z,6.60
2018-11-25T21:47:49.894Z,6.50
2018-11-25T21:50:21.810Z,6.50
2018-11-25T21:52:50.352Z,6.60
2018-11-25T21:55:19.449Z,6.60
2018-11-25T21:57:48.082Z,6.60
2018-11-25T22:00:20.263Z,6.60
2018-11-25T22:02:48.903Z,6.60
2018-11-25T22:05:17.694Z,6.60
2018-11-25T22:07:46.201Z,6.60
2018-11-25T22:10:16.415Z,6.60
2018-11-25T22:12:45.599Z,6.70
2018-11-25T22:15:16.989Z,6.70
2018-11-25T22:17:45.536Z,6.70
2018-11-25T22:20:15.057Z,6.60
2018-11-25T22:22:43.613Z,6.60
2018-11-25T22:25:14.049Z,6.60
2018-11-25T22:27:42.635Z,6.60
2018-11-25T22:30:21.276Z,6.60
2018-11-25T22:32:49.894Z,6.50
2018-11-25T22:35:19.762Z,6.60
2018-11-25T22:37:48.437Z,6.60
2018-11-25T22:40:17.857Z,6.60
2018-11-25T22:42:47.388Z,6.50
2018-11-25T22:45:19.028Z,6.50
2018-11-25T22:47:47.558Z,6.50
2018-11-25T22:51:21.438Z,6.50
2018-11-25T22:53:50.830Z,6.50
2018-11-25T22:56:19.397Z,6.60
2018-11-25T22:58:48.039Z,6.50
2018-11-25T23:01:16.610Z,6.60
2018-11-25T23:03:45.183Z,6.60
2018-11-25T23:06:25.066Z,6.60
2018-11-25T23:08:53.625Z,6.60
2018-11-25T23:11:22.154Z,6.70
2018-11-25T23:13:50.655Z,6.70
2018-11-25T23:16:19.142Z,6.60
2018-11-25T23:18:47.745Z,6.70
2018-11-25T23:21:16.220Z,6.70
2018-11-25T23:23:44.733Z,6.70
2018-11-25T23:26:13.404Z,6.70
2018-11-25T23:28:41.940Z,6.70
2018-11-25T23:31:10.629Z,6.70
2018-11-25T23:33:39.223Z,6.70
2018-11-25T23:36:07.949Z,6.70
2018-11-25T23:38:36.534Z,6.70
2018-11-25T23:42:08.463Z,6.80
2018-11-25T23:44:36.925Z,6.80
2018-11-25T23:47:05.541Z,6.70
2018-11-25T23:49:34.133Z,6.70
2018-11-25T23:52:02.621Z,6.60
2018-11-25T23:54:31.084Z,6.60
2018-11-25T23:56:59.565Z,6.60
2018-11-25T23:59:28.028Z,6.60
